Astor — C6JR3 — position and weather

sailwx.info

Track history (hours):
 
Tides and Currents Weather Stations Pressure Air Temp Water Temp Dewpoint Dewpoint Depression Visibility Wind Speed Wind Dir Waves Ship Positions

Astor

Operator: Passat Ship Management Ltd

Last reported at 2018-Feb-23 12:49 UTC. Time now 2018-Feb-23 22:08 UTC.
Position S 39°32' E 144°40'.

Length 176 m; draft 6.2 m.

Type: Ship. MMSI: 308214000.

Date/timePositionNaut miles runAvg speedWind from/ knotsBaromVisibWave heightAir tempDewpointWater temp
2018-Feb-23 12:49S 39°32' E 144°40'2016.0
2018-Feb-23 11:35S 39°48' E 144°54'416.2
2018-Feb-23 11:22S 39°51' E 144°56'616.1
2018-Feb-23 10:59S 39°57' E 145°00'816.3
2018-Feb-23 10:30S 40°03' E 145°06'916.3
2018-Feb-23 09:56S 40°11' E 145°13'5016.2
2018-Feb-23 06:52S 40°52' E 145°49'816.0
2018-Feb-23 06:23S 40°59' E 145°55'411.6
2018-Feb-23 06:01S 41°03' E 145°56'1 0.4
2018-Feb-23 03:52S 41°03' E 145°55'0 0.0
2018-Feb-23 03:28S 41°03' E 145°55'0 0.0
2018-Feb-23 02:57S 41°03' E 145°55'0 0.0
2018-Feb-23 02:27S 41°03' E 145°55'0 0.0
2018-Feb-23 01:45S 41°03' E 145°55'0 0.0
2018-Feb-23 01:27S 41°03' E 145°55'0 0.0
2018-Feb-23 00:50S 41°03' E 145°55'0 0.0
2018-Feb-23 00:26S 41°03' E 145°55'0 0.0
2018-Feb-22 23:56S 41°03' E 145°55'0 0.0
2018-Feb-22 23:08S 41°03' E 145°55'0 0.0
2018-Feb-22 22:56S 41°03' E 145°55'0 0.0
2018-Feb-22 21:55S 41°03' E 145°55'0 0.2
2018-Feb-22 21:30S 41°03' E 145°55'3 6.4
2018-Feb-22 21:00S 41°01' E 145°58'612.2
2018-Feb-22 20:30S 40°57' E 146°04'714.8
2018-Feb-22 20:00S 40°53' E 146°13'714.2
2018-Feb-22 19:30S 40°47' E 146°18'816.0
2018-Feb-22 19:00S 40°46' E 146°28'816.2
2018-Feb-22 18:31S 40°45' E 146°39'816.2
2018-Feb-22 18:00S 40°43' E 146°49'816.3
2018-Feb-22 17:30S 40°40' E 146°59'816.5
2018-Feb-22 17:00S 40°38' E 147°10'816.7
2018-Feb-22 16:30S 40°35' E 147°20'816.6
2018-Feb-22 16:01S 40°32' E 147°30'917.0
2018-Feb-22 15:30S 40°34' E 147°42'917.7
2018-Feb-22 15:00S 40°35' E 147°53'1018.9
2018-Feb-22 14:30S 40°38' E 148°05'918.6
2018-Feb-22 13:59S 40°42' E 148°16'15413.7
2018-Feb-22 02:48S 43°14' E 147°39'7 0.2
2018-Feb-20 19:36S 43°11' E 147°31'1312.5
2018-Feb-20 18:32S 43°24' E 147°27'34810.7
2018-Feb-19 10:01S 37°56' E 144°54'0 9.3
2018-Feb-19 10:00S 37°56' E 144°54'1 1.3
2018-Feb-19 09:25S 37°55' E 144°54'4 5.2
2018-Feb-19 08:35S 37°51' E 144°56'0 1.0
2018-Feb-19 08:23S 37°51' E 144°56'0 0.0
2018-Feb-19 07:42S 37°51' E 144°56'0 0.1
2018-Feb-19 07:26S 37°51' E 144°56'0 0.0
2018-Feb-18 21:43S 37°51' E 144°56'  
Track history (hours):
 
Tides and Currents Weather Stations Pressure Air Temp Water Temp Dewpoint Dewpoint Depression Visibility Wind Speed Wind Dir Waves Ship Positions

Astor

Operator: Passat Ship Management Ltd

Last reported at 2018-Feb-23 12:49 UTC. Time now 2018-Feb-23 22:08 UTC.
Position S 39°32' E 144°40'.

Length 176 m; draft 6.2 m.

Type: Ship. MMSI: 308214000.

Date/timePositionNaut miles runAvg speedWind from/ knotsBaromVisibWave heightAir tempDewpointWater temp
2018-Feb-23 12:49S 39°32' E 144°40'2016.0
2018-Feb-23 11:35S 39°48' E 144°54'416.2
2018-Feb-23 11:22S 39°51' E 144°56'616.1
2018-Feb-23 10:59S 39°57' E 145°00'816.3
2018-Feb-23 10:30S 40°03' E 145°06'916.3
2018-Feb-23 09:56S 40°11' E 145°13'5016.2
2018-Feb-23 06:52S 40°52' E 145°49'816.0
2018-Feb-23 06:23S 40°59' E 145°55'411.6
2018-Feb-23 06:01S 41°03' E 145°56'1 0.4
2018-Feb-23 03:52S 41°03' E 145°55'0 0.0
2018-Feb-23 03:28S 41°03' E 145°55'0 0.0
2018-Feb-23 02:57S 41°03' E 145°55'0 0.0
2018-Feb-23 02:27S 41°03' E 145°55'0 0.0
2018-Feb-23 01:45S 41°03' E 145°55'0 0.0
2018-Feb-23 01:27S 41°03' E 145°55'0 0.0
2018-Feb-23 00:50S 41°03' E 145°55'0 0.0
2018-Feb-23 00:26S 41°03' E 145°55'0 0.0
2018-Feb-22 23:56S 41°03' E 145°55'0 0.0
2018-Feb-22 23:08S 41°03' E 145°55'0 0.0
2018-Feb-22 22:56S 41°03' E 145°55'0 0.0
2018-Feb-22 21:55S 41°03' E 145°55'0 0.2
2018-Feb-22 21:30S 41°03' E 145°55'3 6.4
2018-Feb-22 21:00S 41°01' E 145°58'612.2
2018-Feb-22 20:30S 40°57' E 146°04'714.8
2018-Feb-22 20:00S 40°53' E 146°13'714.2
2018-Feb-22 19:30S 40°47' E 146°18'816.0
2018-Feb-22 19:00S 40°46' E 146°28'816.2
2018-Feb-22 18:31S 40°45' E 146°39'816.2
2018-Feb-22 18:00S 40°43' E 146°49'816.3
2018-Feb-22 17:30S 40°40' E 146°59'816.5
2018-Feb-22 17:00S 40°38' E 147°10'816.7
2018-Feb-22 16:30S 40°35' E 147°20'816.6
2018-Feb-22 16:01S 40°32' E 147°30'917.0
2018-Feb-22 15:30S 40°34' E 147°42'917.7
2018-Feb-22 15:00S 40°35' E 147°53'1018.9
2018-Feb-22 14:30S 40°38' E 148°05'918.6
2018-Feb-22 13:59S 40°42' E 148°16'15413.7
2018-Feb-22 02:48S 43°14' E 147°39'7 0.2
2018-Feb-20 19:36S 43°11' E 147°31'1312.5
2018-Feb-20 18:32S 43°24' E 147°27'34810.7
2018-Feb-19 10:01S 37°56' E 144°54'0 9.3
2018-Feb-19 10:00S 37°56' E 144°54'1 1.3
2018-Feb-19 09:25S 37°55' E 144°54'4 5.2
2018-Feb-19 08:35S 37°51' E 144°56'0 1.0
2018-Feb-19 08:23S 37°51' E 144°56'0 0.0
2018-Feb-19 07:42S 37°51' E 144°56'0 0.1
2018-Feb-19 07:26S 37°51' E 144°56'0 0.0
2018-Feb-18 21:43S 37°51' E 144°56'  

Dump ship's entire track history